Terminal Aerodrome Forecast
Issued by NWS

Home | Current Version | Previous Version | Graphics & Text | Print | Product List | Glossary On
Versions: 1 2 3 4 5 6 7 8 9 10 11 12 13 14
000
FTUS43 KGRB 040200 AAA
TAFATW
TAF AMD
KATW 040217Z 0402/0424 20010KT P6SM BKN090
     FM040400 20010KT P6SM -SHRA SCT040 BKN060
      TEMPO 0404/0406 33020G30KT 3SM TSRA BKN040CB
     FM040900 32006KT P6SM SCT070 BKN090
     FM041500 04010KT P6SM SCT060
     FM042100 06008KT P6SM SCT250=

USA.gov is the U.S. government's official web portal to all federal, state and local government web resources and services.